Allison, Texas
Current Conditions -  °F | °C
As of 4:55 PM on Tuesday 27 Jan 2015 (Local Time) from KHHF Reporting Station
Clear Clear  
Wind Chill: 76°   Ceiling: Unl
Heat Index: 77°   Visibility: 10mi
Dew Point: 32°   Wind: 8mph
Humidity: 20%   Direction: 230°SW
Pressure: 30.06"   Gusts: NA
Location:  35.61°N, 100.1°W
Report Text: KHHF 272255Z AUTO 23007KT 10SM CLR 25/00 A3006 RMK AO2 T02460001
Loading
Personal Weather Stations






























Interactive Weather Map New forecast layout! Learn more

10-Day Weather Forecast

Advertisements
Track Severe Weather on mobile